Time;durP1;ratioP1;P1;durP2;ratioP2;P2;SDS_P1;SDS_P2;PMS_P1;PMS_P2;Temp;Humidity;BMP_temperature;BMP_pressure;BME280_temperature;BME280_humidity;BME280_pressure;Samples;Min_cycle;Max_cycle;Signal;HPM_P1;HPM_P2
2022/10/04 00:00:11;;;;;;;17.65;11.15;;;12.20;99.90;;;;;;5045292;28;20063;-73
2022/10/04 00:02:42;;;;;;;18.10;11.10;;;12.20;99.90;;;;;;5044693;28;20021;-74
2022/10/04 00:05:16;;;;;;;13.18;10.57;;;12.20;99.90;;;;;;5043314;28;20089;-74
2022/10/04 00:07:55;;;;;;;17.73;11.07;;;12.20;99.90;;;;;;5044725;28;20025;-74
2022/10/04 00:10:22;;;;;;;15.10;10.32;;;12.20;99.90;;;;;;5045300;28;20404;-75
2022/10/04 00:12:53;;;;;;;18.95;11.35;;;12.10;99.90;;;;;;5044644;28;20076;-75
2022/10/04 00:15:27;;;;;;;18.83;11.77;;;12.20;99.90;;;;;;5044064;28;20112;-76
2022/10/04 00:18:18;;;;;;;21.17;12.27;;;12.10;99.90;;;;;;5045338;28;20489;-75
2022/10/04 00:21:10;;;;;;;18.88;12.35;;;12.10;99.90;;;;;;5045909;28;20021;-74
2022/10/04 00:23:35;;;;;;;19.55;11.10;;;12.20;99.90;;;;;;5045422;28;20028;-74
2022/10/04 00:26:04;;;;;;;18.13;11.27;;;12.10;99.90;;;;;;5045614;28;20033;-75
2022/10/04 00:28:43;;;;;;;18.67;11.63;;;12.10;99.90;;;;;;5045560;28;20032;-74
2022/10/04 00:31:19;;;;;;;21.70;12.35;;;12.10;99.90;;;;;;5046379;28;20024;-74
2022/10/04 00:34:15;;;;;;;20.98;12.38;;;12.10;99.90;;;;;;5043319;28;20278;-74
2022/10/04 00:36:52;;;;;;;17.45;10.95;;;12.10;99.90;;;;;;5043823;28;20040;-75
2022/10/04 00:39:35;;;;;;;22.45;11.27;;;12.10;99.90;;;;;;5043531;28;20029;-74
2022/10/04 00:42:38;;;;;;;18.77;10.38;;;12.10;99.90;;;;;;5041784;28;20025;-75
2022/10/04 00:45:12;;;;;;;;;;;12.00;99.90;;;;;;5044340;28;20063;-75
2022/10/04 00:47:47;;;;;;;14.07;9.60;;;11.90;99.90;;;;;;5045934;28;20284;-74
2022/10/04 00:50:37;;;;;;;17.23;10.35;;;11.90;99.90;;;;;;5059547;28;20079;-75
2022/10/04 00:53:13;;;;;;;17.70;10.35;;;11.80;99.90;;;;;;5043193;28;20025;-75
2022/10/04 00:55:48;;;;;;;17.85;10.90;;;11.80;99.90;;;;;;5044889;28;20061;-74
2022/10/04 00:58:19;;;;;;;16.90;11.45;;;11.80;99.90;;;;;;5061271;28;20041;-74
2022/10/04 01:00:47;;;;;;;20.92;11.32;;;11.80;99.90;;;;;;5046571;28;20033;-74
2022/10/04 01:03:29;;;;;;;15.98;10.90;;;11.80;99.90;;;;;;5043751;28;20070;-75
2022/10/04 01:05:59;;;;;;;19.80;11.02;;;11.80;99.90;;;;;;5039583;28;20041;-75
2022/10/04 01:08:31;;;;;;;17.90;11.60;;;11.80;99.90;;;;;;5043818;28;20036;-76
2022/10/04 01:11:06;;;;;;;19.55;10.73;;;11.90;99.90;;;;;;5045142;28;20028;-74
2022/10/04 01:13:43;;;;;;;23.88;12.82;;;11.90;99.90;;;;;;5043641;28;20120;-74
2022/10/04 01:16:23;;;;;;;26.52;13.18;;;11.90;99.90;;;;;;5045141;28;20033;-74
2022/10/04 01:18:49;;;;;;;19.98;12.70;;;11.90;99.90;;;;;;5043411;28;20029;-74
2022/10/04 01:21:18;;;;;;;22.67;12.70;;;11.90;99.90;;;;;;5045274;28;20057;-74
2022/10/04 01:23:46;;;;;;;17.13;11.02;;;11.90;99.90;;;;;;5042599;28;20040;-75
2022/10/04 01:26:33;;;;;;;17.77;12.20;;;11.90;99.90;;;;;;5041780;28;20064;-75
2022/10/04 01:29:01;;;;;;;22.48;12.20;;;12.00;99.90;;;;;;5043948;28;20029;-74
2022/10/04 01:31:29;;;;;;;19.88;13.10;;;12.00;99.90;;;;;;5041812;28;20045;-74
2022/10/04 01:33:55;;;;;;;27.23;14.52;;;11.90;99.90;;;;;;5042531;28;20025;-75
2022/10/04 01:36:21;;;;;;;19.30;12.30;;;12.00;99.90;;;;;;5040472;28;20025;-74
2022/10/04 01:38:47;;;;;;;23.08;12.30;;;11.90;99.90;;;;;;5042595;28;20044;-75
2022/10/04 01:41:18;;;;;;;16.60;12.25;;;12.00;99.90;;;;;;5044263;28;20037;-74
2022/10/04 01:43:49;;;;;;;18.80;11.85;;;12.00;99.90;;;;;;5043080;28;20064;-75
2022/10/04 01:46:29;;;;;;;22.05;12.07;;;11.90;99.90;;;;;;5040797;28;20052;-74
2022/10/04 01:48:56;;;;;;;17.88;11.77;;;11.90;99.90;;;;;;5040814;28;20645;-75
2022/10/04 01:51:29;;;;;;;19.90;12.27;;;11.90;99.90;;;;;;5043687;28;20032;-75
2022/10/04 01:54:08;;;;;;;20.13;12.25;;;11.80;99.90;;;;;;5045213;28;20096;-74
2022/10/04 01:56:48;;;;;;;18.70;12.43;;;11.80;99.90;;;;;;5039652;28;20032;-74
2022/10/04 01:59:20;;;;;;;20.88;12.60;;;11.70;99.90;;;;;;5044192;28;20059;-74
2022/10/04 02:01:56;;;;;;;17.17;12.43;;;11.60;99.90;;;;;;5044262;28;20141;-74
2022/10/04 02:04:32;;;;;;;27.27;11.50;;;11.60;99.90;;;;;;5043949;28;20429;-75
2022/10/04 02:07:00;;;;;;;23.50;11.82;;;11.60;99.90;;;;;;5042698;28;20029;-74
2022/10/04 02:09:31;;;;;;;18.13;12.55;;;11.60;99.90;;;;;;5042287;28;20371;-75
2022/10/04 02:11:58;;;;;;;24.05;13.45;;;11.50;99.90;;;;;;5042650;28;20051;-76
2022/10/04 02:14:32;;;;;;;19.10;11.63;;;11.50;99.90;;;;;;5043161;28;20639;-74
2022/10/04 02:17:00;;;;;;;19.77;11.50;;;11.50;99.90;;;;;;5040727;28;20110;-75
2022/10/04 02:19:36;;;;;;;17.65;12.60;;;11.50;99.90;;;;;;5041324;28;20499;-74
2022/10/04 02:22:04;;;;;;;23.67;12.18;;;11.40;99.90;;;;;;5043586;28;20044;-75
2022/10/04 02:24:34;;;;;;;21.67;12.90;;;11.40;99.90;;;;;;5043876;28;20377;-75
2022/10/04 02:27:00;;;;;;;18.95;12.38;;;11.30;99.90;;;;;;5041234;28;20112;-75
2022/10/04 02:29:26;;;;;;;24.20;11.82;;;11.30;99.90;;;;;;5044556;28;20043;-75
2022/10/04 02:34:36;;;;;;;17.73;12.10;;;11.20;99.90;;;;;;5040549;28;20055;-76
2022/10/04 02:37:04;;;;;;;23.73;12.52;;;11.20;99.90;;;;;;5040133;28;20051;-75
2022/10/04 02:39:37;;;;;;;25.25;12.50;;;11.10;99.90;;;;;;5041461;28;20032;-75
2022/10/04 02:42:11;;;;;;;20.98;12.00;;;11.10;99.90;;;;;;5042741;28;20029;-75
2022/10/04 02:44:58;;;;;;;18.17;12.05;;;11.10;99.90;;;;;;5043003;28;20033;-75
2022/10/04 02:47:36;;;;;;;19.52;11.70;;;11.00;99.90;;;;;;5042020;28;20071;-75
2022/10/04 02:50:27;;;;;;;24.88;13.18;;;10.90;99.90;;;;;;5041589;28;20051;-75
2022/10/04 02:53:00;;;;;;;18.95;12.32;;;10.90;99.90;;;;;;5027418;28;20125;-75
2022/10/04 02:55:30;;;;;;;22.38;12.20;;;10.80;99.90;;;;;;5043022;28;20025;-74
2022/10/04 02:57:58;;;;;;;23.50;13.00;;;10.70;99.90;;;;;;5041759;28;20032;-75
2022/10/04 03:00:29;;;;;;;24.58;13.35;;;10.70;99.90;;;;;;5042080;28;20029;-74
2022/10/04 03:03:22;;;;;;;21.73;12.65;;;10.70;99.90;;;;;;5043304;28;20492;-75
2022/10/04 03:06:02;;;;;;;21.98;13.00;;;10.60;99.90;;;;;;5044239;28;20025;-75
2022/10/04 03:08:33;;;;;;;23.50;13.00;;;10.60;99.90;;;;;;5042444;28;20074;-75
2022/10/04 03:11:01;;;;;;;22.27;13.10;;;10.50;99.90;;;;;;5043092;28;20029;-75
2022/10/04 03:13:27;;;;;;;22.05;12.65;;;10.50;99.90;;;;;;5037728;28;20037;-75
2022/10/04 03:15:53;;;;;;;23.23;14.10;;;10.40;99.90;;;;;;5046743;28;20029;-75
2022/10/04 03:18:19;;;;;;;22.98;13.40;;;10.40;99.90;;;;;;5046601;28;20043;-75
2022/10/04 03:20:45;;;;;;;27.85;13.88;;;10.40;99.90;;;;;;5046282;28;20024;-74
2022/10/04 03:23:14;;;;;;;21.35;13.68;;;10.30;99.90;;;;;;5044398;28;20104;-75
2022/10/04 03:25:49;;;;;;;20.48;14.05;;;10.30;99.90;;;;;;5046295;28;20102;-75
2022/10/04 03:28:16;;;;;;;24.38;13.75;;;10.30;99.90;;;;;;5044515;28;20033;-75
2022/10/04 03:30:43;;;;;;;31.13;14.32;;;10.30;99.90;;;;;;5046700;28;20480;-75
2022/10/04 03:33:24;;;;;;;24.73;13.77;;;10.20;99.90;;;;;;5046560;28;20036;-75
2022/10/04 03:35:53;;;;;;;26.55;14.80;;;10.20;99.90;;;;;;5044535;28;20036;-75
2022/10/04 03:38:21;;;;;;;23.05;14.13;;;10.20;99.90;;;;;;5045630;28;20543;-75
2022/10/04 03:40:52;;;;;;;22.30;13.98;;;10.20;99.90;;;;;;5043922;28;20067;-76
2022/10/04 03:43:21;;;;;;;26.05;14.85;;;10.20;99.90;;;;;;5044555;28;20028;-75
2022/10/04 03:45:46;;;;;;;23.77;14.45;;;10.20;99.90;;;;;;5044711;28;20451;-75
2022/10/04 03:48:25;;;;;;;27.42;14.73;;;10.20;99.90;;;;;;5045035;28;20037;-74
2022/10/04 03:50:51;;;;;;;25.20;14.52;;;10.20;99.90;;;;;;5043556;28;20491;-75
2022/10/04 03:53:30;;;;;;;23.40;14.20;;;10.20;99.90;;;;;;5045778;28;20025;-75
2022/10/04 03:55:57;;;;;;;21.23;13.98;;;10.20;99.90;;;;;;5044495;28;20507;-75
2022/10/04 03:58:25;;;;;;;25.30;15.05;;;10.10;99.90;;;;;;5044141;28;20077;-75
2022/10/04 04:01:33;;;;;;;25.25;15.02;;;10.10;99.90;;;;;;5044756;28;20044;-75
2022/10/04 04:04:22;;;;;;;22.67;13.85;;;10.10;99.90;;;;;;5015319;28;20048;-74
2022/10/04 04:07:05;;;;;;;25.67;13.77;;;10.10;99.90;;;;;;5044958;28;20029;-75
2022/10/04 04:09:51;;;;;;;22.00;14.13;;;10.10;99.90;;;;;;5045484;28;20028;-74
2022/10/04 04:12:26;;;;;;;24.95;14.15;;;10.10;99.90;;;;;;5044725;28;20044;-75
2022/10/04 04:14:53;;;;;;;21.75;14.05;;;10.00;99.90;;;;;;5045778;28;20032;-74
2022/10/04 04:17:29;;;;;;;26.80;14.68;;;10.00;99.90;;;;;;5045247;28;20033;-75
2022/10/04 04:20:01;;;;;;;30.20;14.55;;;10.00;99.90;;;;;;5045432;28;20086;-74
2022/10/04 04:22:30;;;;;;;;;;;9.90;99.90;;;;;;5043609;28;20116;-74
2022/10/04 04:24:59;;;;;;;25.88;13.65;;;9.90;99.90;;;;;;5044331;28;19927;-75
2022/10/04 04:27:26;;;;;;;21.33;13.43;;;9.80;99.90;;;;;;5039270;28;20952;-74
2022/10/04 04:29:52;;;;;;;27.65;14.65;;;9.80;99.90;;;;;;5047003;28;20036;-74
2022/10/04 04:32:35;;;;;;;26.63;14.80;;;9.80;99.90;;;;;;5044458;28;20456;-74
2022/10/04 04:35:07;;;;;;;22.15;14.15;;;9.80;99.90;;;;;;5038462;28;20116;-74
2022/10/04 04:37:37;;;;;;;22.88;14.75;;;9.70;99.90;;;;;;5044465;28;20184;-75
2022/10/04 04:40:19;;;;;;;25.95;15.38;;;9.70;99.90;;;;;;5045921;28;20134;-74
2022/10/04 04:42:45;;;;;;;25.67;15.20;;;9.70;99.90;;;;;;5044063;28;20032;-74
2022/10/04 04:45:18;;;;;;;21.98;14.52;;;9.70;99.90;;;;;;5045182;28;20040;-74
2022/10/04 04:47:52;;;;;;;26.02;14.82;;;9.60;99.90;;;;;;5045991;28;20493;-75
2022/10/04 04:50:26;;;;;;;28.48;15.40;;;9.60;99.90;;;;;;5044187;28;20040;-75
2022/10/04 04:52:59;;;;;;;28.55;15.65;;;9.50;99.90;;;;;;5045119;28;20029;-75
2022/10/04 04:55:28;;;;;;;28.08;15.85;;;9.50;99.90;;;;;;5045525;28;20025;-74
2022/10/04 04:57:57;;;;;;;27.20;15.20;;;9.50;99.90;;;;;;5043718;28;20029;-75
2022/10/04 05:00:36;;;;;;;31.20;15.15;;;9.50;99.90;;;;;;5045460;28;20045;-75
2022/10/04 05:03:15;;;;;;;23.80;14.75;;;9.40;99.90;;;;;;5043641;28;20032;-75
2022/10/04 05:05:44;;;;;;;25.55;15.30;;;9.40;99.90;;;;;;5039871;28;20390;-75
2022/10/04 05:08:29;;;;;;;27.23;15.27;;;9.40;99.90;;;;;;5041879;28;20028;-75
2022/10/04 05:11:08;;;;;;;26.13;15.13;;;9.40;99.90;;;;;;5050710;28;20045;-75
2022/10/04 05:13:39;;;;;;;29.70;14.32;;;9.30;99.90;;;;;;5048331;28;20037;-75
2022/10/04 05:16:12;;;;;;;29.48;14.52;;;9.30;99.90;;;;;;5043880;28;20033;-75
2022/10/04 05:18:37;;;;;;;28.25;14.32;;;9.30;99.90;;;;;;5046004;28;20036;-76
2022/10/04 05:21:19;;;;;;;23.23;14.27;;;9.30;99.90;;;;;;5046526;28;20041;-75
2022/10/04 05:23:46;;;;;;;21.25;13.63;;;9.30;99.90;;;;;;5043289;28;20029;-75
2022/10/04 05:26:13;;;;;;;24.05;14.48;;;9.20;99.90;;;;;;5046960;28;20424;-75
2022/10/04 05:28:39;;;;;;;23.80;13.70;;;9.20;99.90;;;;;;5043291;28;20032;-75
2022/10/04 05:31:44;;;;;;;27.65;14.90;;;9.20;99.90;;;;;;5041224;28;20033;-75
2022/10/04 05:34:23;;;;;;;23.65;13.60;;;9.20;99.90;;;;;;5043851;28;20385;-75
2022/10/04 05:37:27;;;;;;;23.17;13.80;;;9.20;99.90;;;;;;5041357;28;20036;-76
2022/10/04 05:40:22;;;;;;;23.05;14.20;;;9.20;99.90;;;;;;5040673;28;20021;-76
2022/10/04 05:42:48;;;;;;;22.15;14.35;;;9.20;99.90;;;;;;5042393;28;20529;-76
2022/10/04 05:45:19;;;;;;;26.42;14.38;;;9.20;99.90;;;;;;5045003;28;20188;-76
2022/10/04 05:47:48;;;;;;;22.13;14.00;;;9.20;99.90;;;;;;5045542;28;20787;-77
2022/10/04 05:50:34;;;;;;;22.23;14.07;;;9.20;99.90;;;;;;5045897;28;20028;-76
2022/10/04 05:53:33;;;;;;;27.05;14.85;;;9.20;99.90;;;;;;5041728;28;20028;-76
2022/10/04 05:56:10;;;;;;;24.52;14.45;;;9.20;99.90;;;;;;5044206;28;20392;-76
2022/10/04 05:58:58;;;;;;;20.88;14.05;;;9.20;99.90;;;;;;5045179;28;20021;-76
2022/10/04 06:01:53;;;;;;;25.63;13.30;;;9.20;99.90;;;;;;5040422;28;20053;-76
2022/10/04 06:04:45;;;;;;;23.33;14.02;;;9.20;99.90;;;;;;5041945;28;20435;-76
2022/10/04 06:07:10;;;;;;;23.77;13.87;;;9.20;99.90;;;;;;5033843;28;20040;-76
2022/10/04 06:09:47;;;;;;;25.15;13.23;;;9.20;99.90;;;;;;5039655;28;20872;-76
2022/10/04 06:12:54;;;;;;;26.13;14.63;;;9.30;99.90;;;;;;5043863;28;20045;-76
2022/10/04 06:15:46;;;;;;;26.90;13.73;;;9.30;99.90;;;;;;5043178;28;20032;-75
2022/10/04 06:18:21;;;;;;;23.98;13.35;;;9.30;99.90;;;;;;5043762;28;20040;-75
2022/10/04 06:21:16;;;;;;;19.67;13.75;;;9.40;99.90;;;;;;5042776;28;20060;-76
2022/10/04 06:24:14;;;;;;;22.42;13.65;;;9.40;99.90;;;;;;5042663;28;20025;-77
2022/10/04 06:26:47;;;;;;;20.42;13.45;;;9.50;99.90;;;;;;5043695;28;20092;-76
2022/10/04 06:29:19;;;;;;;25.83;15.13;;;9.50;99.90;;;;;;5044556;28;20392;-75
2022/10/04 06:32:18;;;;;;;22.85;14.68;;;9.50;99.90;;;;;;5047229;28;20029;-75
2022/10/04 06:35:12;;;;;;;22.35;14.15;;;9.60;99.90;;;;;;5042419;28;20511;-74
2022/10/04 06:38:16;;;;;;;24.67;13.73;;;9.60;99.90;;;;;;5041103;28;20022;-74
2022/10/04 06:41:15;;;;;;;22.20;13.40;;;9.70;99.90;;;;;;5039382;28;20029;-74
2022/10/04 06:43:41;;;;;;;23.58;13.70;;;9.70;99.90;;;;;;5043384;28;20031;-74
2022/10/04 06:46:20;;;;;;;26.13;13.40;;;9.80;99.90;;;;;;5043435;28;20112;-75
2022/10/04 06:49:22;;;;;;;23.05;13.02;;;9.90;99.90;;;;;;5045094;28;20536;-73
2022/10/04 06:52:23;;;;;;;25.75;12.55;;;10.00;99.90;;;;;;5048173;28;20151;-75
2022/10/04 06:55:33;;;;;;;20.92;11.90;;;10.10;99.90;;;;;;5046970;28;20081;-75
2022/10/04 06:58:16;;;;;;;25.92;11.73;;;10.10;99.90;;;;;;5028669;28;20211;-75
2022/10/04 07:01:03;;;;;;;21.25;11.50;;;10.20;99.90;;;;;;5046365;28;20112;-75
2022/10/04 07:03:46;;;;;;;19.17;11.40;;;10.30;99.90;;;;;;5046435;28;20036;-75
2022/10/04 07:06:11;;;;;;;;;;;10.30;99.90;;;;;;5047197;28;20043;-74
2022/10/04 07:08:54;;;;;;;18.92;10.45;;;10.30;99.90;;;;;;5041837;28;19917;-74
2022/10/04 07:11:41;;;;;;;19.58;11.20;;;10.40;99.90;;;;;;5045180;28;20052;-73
2022/10/04 07:14:24;;;;;;;14.13;9.02;;;10.50;99.90;;;;;;5043281;28;20408;-74
2022/10/04 07:17:04;;;;;;;18.98;10.27;;;10.50;99.90;;;;;;5047942;28;20408;-74
2022/10/04 07:19:46;;;;;;;16.98;9.77;;;10.60;99.90;;;;;;5039342;28;20082;-74
2022/10/04 07:22:25;;;;;;;16.30;10.13;;;10.60;99.90;;;;;;5044832;28;20024;-74
2022/10/04 07:25:02;;;;;;;19.23;10.10;;;10.70;99.90;;;;;;5047320;28;20244;-74
2022/10/04 07:29:19;;;;;;;20.60;9.60;;;10.80;99.90;;;;;;5042176;28;20029;-74
2022/10/04 07:30:40;;;;;;;19.17;10.55;;;11.00;99.90;;;;;;5045514;28;20035;-75
2022/10/04 07:33:11;;;;;;;16.38;9.82;;;11.20;99.90;;;;;;5046131;28;20040;-74
2022/10/04 07:35:50;;;;;;;16.20;8.50;;;11.30;99.90;;;;;;5046642;28;20345;-74
2022/10/04 07:38:28;;;;;;;12.18;8.70;;;11.50;99.90;;;;;;5043711;28;20025;-75
2022/10/04 07:41:11;;;;;;;17.63;8.95;;;11.70;99.90;;;;;;5041243;28;20036;-74
2022/10/04 07:43:58;;;;;;;16.38;8.73;;;11.80;99.90;;;;;;5046717;28;20056;-74
2022/10/04 07:46:45;;;;;;;15.02;8.68;;;11.90;99.90;;;;;;5045819;28;20036;-74
2022/10/04 07:49:19;;;;;;;13.10;9.00;;;12.00;99.90;;;;;;5045103;28;20558;-75
2022/10/04 07:52:06;;;;;;;17.27;8.35;;;12.00;99.90;;;;;;5043586;28;20515;-74
2022/10/04 07:54:51;;;;;;;15.85;8.32;;;12.00;99.90;;;;;;5043698;28;20032;-74
2022/10/04 07:57:35;;;;;;;12.15;7.13;;;12.00;99.90;;;;;;5045293;28;20021;-75
2022/10/04 08:00:10;;;;;;;14.18;7.82;;;12.00;99.90;;;;;;5044541;28;20610;-76
2022/10/04 08:02:48;;;;;;;15.25;7.85;;;12.00;99.90;;;;;;5043260;28;20033;-74
2022/10/04 08:05:22;;;;;;;12.07;8.82;;;12.00;99.90;;;;;;5043827;28;20025;-74
2022/10/04 08:08:29;;;;;;;15.07;8.35;;;12.20;99.90;;;;;;5045453;28;20063;-74
2022/10/04 08:11:06;;;;;;;12.80;8.02;;;12.40;99.90;;;;;;5043639;28;20032;-74
2022/10/04 08:13:51;;;;;;;17.88;7.93;;;12.40;99.90;;;;;;5040261;28;20045;-74
2022/10/04 08:16:25;;;;;;;15.20;8.50;;;12.60;99.90;;;;;;5044513;28;20020;-75
2022/10/04 08:19:12;;;;;;;15.50;8.50;;;12.80;99.90;;;;;;5044937;28;20087;-74
2022/10/04 08:22:12;;;;;;;13.73;8.15;;;12.90;99.90;;;;;;5043630;28;20032;-74
2022/10/04 08:25:00;;;;;;;18.83;8.15;;;13.00;99.90;;;;;;5043242;28;20029;-74
2022/10/04 08:31:08;;;;;;;15.15;8.68;;;13.30;99.90;;;;;;5214233;22;20119;-89
2022/10/04 08:34:20;;;;;;;11.93;8.60;;;13.40;99.90;;;;;;5045236;28;20111;-90
2022/10/04 08:37:10;;;;;;;16.42;8.98;;;13.50;99.90;;;;;;4982072;28;20033;-90
2022/10/04 08:40:12;;;;;;;13.55;7.57;;;13.60;99.90;;;;;;5036927;28;20029;-90
2022/10/04 08:43:12;;;;;;;14.05;8.50;;;13.70;99.90;;;;;;5050272;28;20078;-90
2022/10/04 08:45:52;;;;;;;14.02;8.38;;;13.90;99.90;;;;;;5053000;28;20102;-90
2022/10/04 08:48:24;;;;;;;14.55;7.65;;;14.00;99.90;;;;;;5053524;28;20523;-88
2022/10/04 08:51:17;;;;;;;15.13;8.10;;;14.10;99.90;;;;;;5040467;28;20033;-90
2022/10/04 08:54:26;;;;;;;13.60;7.45;;;14.10;99.90;;;;;;5037820;28;20385;-90
2022/10/04 08:57:11;;;;;;;15.50;7.07;;;14.30;99.90;;;;;;5017240;28;20029;-90
2022/10/04 09:00:17;;;;;;;14.20;6.95;;;14.40;99.90;;;;;;5035606;28;20029;-90
2022/10/04 09:03:15;;;;;;;13.65;6.80;;;14.40;99.90;;;;;;5003080;28;20485;-90
2022/10/04 09:06:04;;;;;;;10.65;6.70;;;14.50;99.90;;;;;;5037268;28;20114;-90
2022/10/04 09:09:20;;;;;;;14.32;6.25;;;14.50;99.90;;;;;;5007501;28;20108;-90
2022/10/04 09:11:57;;;;;;;12.15;6.15;;;14.70;99.90;;;;;;4991808;28;20038;-90
2022/10/04 09:14:50;;;;;;;9.30;6.15;;;14.70;99.90;;;;;;5040517;28;20507;-90
2022/10/04 09:17:20;;;;;;;13.63;5.65;;;14.80;99.90;;;;;;5047532;28;20071;-91
2022/10/04 09:19:54;;;;;;;8.80;5.10;;;14.80;99.90;;;;;;5052296;28;20155;-91
2022/10/04 09:22:45;;;;;;;12.27;4.97;;;14.80;99.90;;;;;;5037847;28;20055;-91
2022/10/04 09:25:38;;;;;;;11.48;6.00;;;14.90;99.90;;;;;;5052534;28;20028;-90
2022/10/04 09:28:23;;;;;;;11.60;6.03;;;14.90;99.90;;;;;;5044517;28;20037;-90
2022/10/04 09:31:13;;;;;;;11.32;5.32;;;15.10;99.90;;;;;;5046506;28;20102;-91
2022/10/04 09:34:10;;;;;;;11.13;5.20;;;15.10;99.90;;;;;;5054143;28;20025;-91
2022/10/04 09:37:06;;;;;;;15.25;5.80;;;15.20;99.90;;;;;;5051113;28;20441;-91
2022/10/04 09:39:38;;;;;;;13.25;6.22;;;15.20;99.90;;;;;;5036883;28;20025;-91
2022/10/04 09:42:07;;;;;;;11.10;5.55;;;15.30;99.90;;;;;;5049574;28;20028;-91
2022/10/04 09:44:54;;;;;;;12.48;6.20;;;15.30;99.90;;;;;;5050678;28;20029;-90
2022/10/04 09:47:42;;;;;;;10.32;5.00;;;15.40;99.90;;;;;;5051270;28;20031;-91
2022/10/04 09:50:40;;;;;;;9.32;5.55;;;15.50;99.90;;;;;;5043656;28;20037;-92
2022/10/04 09:53:27;;;;;;;10.30;5.43;;;15.60;99.90;;;;;;5046202;28;20021;-92
2022/10/04 09:56:25;;;;;;;11.55;5.15;;;15.60;99.90;;;;;;5050273;28;20029;-92
2022/10/04 09:59:21;;;;;;;12.02;5.40;;;15.60;99.90;;;;;;5050843;28;20540;-90
2022/10/04 10:01:59;;;;;;;12.00;5.40;;;15.70;99.90;;;;;;5049498;28;20029;-92
2022/10/04 10:04:44;;;;;;;14.48;5.85;;;15.70;99.90;;;;;;5053381;28;20032;-92
2022/10/04 10:07:42;;;;;;;10.07;5.22;;;15.70;99.90;;;;;;5047401;28;20041;-92
2022/10/04 10:13:49;;;;;;;9.18;4.80;;;15.90;99.90;;;;;;5037918;28;20044;-91
2022/10/04 10:16:41;;;;;;;10.02;4.93;;;16.00;99.90;;;;;;5048270;28;20025;-92
2022/10/04 10:19:34;;;;;;;12.20;4.93;;;16.10;99.90;;;;;;5027033;28;20041;-93
2022/10/04 10:22:26;;;;;;;10.57;4.57;;;16.20;99.90;;;;;;5049752;28;20037;-92
2022/10/04 10:25:00;;;;;;;11.77;5.00;;;16.20;99.90;;;;;;5045452;28;20033;-92
2022/10/04 10:27:43;;;;;;;11.30;4.68;;;16.30;99.90;;;;;;5044237;28;20068;-92
2022/10/04 10:30:37;;;;;;;12.10;4.78;;;16.30;99.90;;;;;;5042405;28;20119;-92
2022/10/04 10:33:30;;;;;;;11.45;4.60;;;16.40;99.90;;;;;;5042053;28;20025;-90
2022/10/04 10:36:23;;;;;;;8.68;4.60;;;16.40;99.90;;;;;;5051443;28;20029;-93
2022/10/04 10:39:07;;;;;;;13.50;4.97;;;16.50;99.90;;;;;;5049190;28;20025;-93
2022/10/04 10:41:54;;;;;;;12.70;4.30;;;16.50;99.90;;;;;;5047333;28;20030;-92
2022/10/04 10:44:50;;;;;;;9.82;4.78;;;16.60;99.90;;;;;;5047327;28;20503;-92
2022/10/04 10:47:29;;;;;;;12.38;5.00;;;16.70;99.90;;;;;;5046290;28;20037;-92
2022/10/04 10:50:26;;;;;;;10.23;4.97;;;16.70;99.90;;;;;;5043706;28;20101;-93
2022/10/04 10:53:06;;;;;;;9.98;4.55;;;16.70;99.90;;;;;;5052006;28;20036;-91
2022/10/04 10:55:53;;;;;;;11.57;4.97;;;16.80;99.90;;;;;;5060152;28;20059;-94
2022/10/04 10:58:32;;;;;;;11.73;4.78;;;16.90;99.90;;;;;;5047236;28;20137;-94
2022/10/04 11:01:27;;;;;;;10.68;5.22;;;16.90;99.90;;;;;;5041511;28;20053;-92
2022/10/04 11:04:05;;;;;;;12.85;5.47;;;17.00;99.90;;;;;;5045234;28;20029;-92
2022/10/04 11:07:07;;;;;;;11.43;4.20;;;17.10;99.90;;;;;;5033058;28;20252;-93
2022/10/04 11:09:53;;;;;;;8.32;4.18;;;17.10;99.90;;;;;;5055928;28;20078;-94
2022/10/04 11:13:01;;;;;;;8.43;4.45;;;17.20;99.90;;;;;;5048570;28;20033;-93
2022/10/04 11:15:42;;;;;;;8.02;3.83;;;17.20;99.90;;;;;;5003190;28;20485;-93
2022/10/04 11:18:48;;;;;;;8.48;4.05;;;17.30;99.90;;;;;;5044642;28;20223;-92
2022/10/04 11:21:26;;;;;;;18.00;6.45;;;17.30;99.90;;;;;;5040722;28;20021;-91
2022/10/04 11:24:22;;;;;;;6.95;3.72;;;17.40;99.90;;;;;;5049438;28;20067;-91
2022/10/04 11:27:12;;;;;;;10.60;4.40;;;17.50;99.90;;;;;;5055858;28;20270;-92
2022/10/04 11:30:14;;;;;;;8.10;4.15;;;17.50;99.90;;;;;;5047688;28;20031;-91
2022/10/04 11:33:22;;;;;;;9.55;4.00;;;17.40;99.90;;;;;;5046422;28;20040;-92
2022/10/04 11:36:27;;;;;;;10.20;3.97;;;17.40;99.90;;;;;;5046201;28;20041;-93
2022/10/04 11:38:55;;;;;;;12.20;3.50;;;17.50;99.90;;;;;;5054363;28;20025;-90
2022/10/04 11:41:23;;;;;;;6.97;3.35;;;17.60;99.90;;;;;;5052429;28;20055;-92
2022/10/04 11:44:44;;;;;;;7.22;3.10;;;17.70;99.90;;;;;;5048546;28;20104;-93
2022/10/04 11:47:33;;;;;;;5.95;2.58;;;17.90;99.90;;;;;;5040703;28;20124;-92
2022/10/04 11:50:24;;;;;;;6.90;2.78;;;18.00;99.90;;;;;;5043373;28;20047;-92
2022/10/04 11:53:24;;;;;;;6.93;2.10;;;18.20;99.90;;;;;;5055306;28;20021;-91
2022/10/04 11:56:28;;;;;;;6.05;2.17;;;18.40;99.90;;;;;;5056636;28;20032;-92
2022/10/04 11:59:05;;;;;;;5.55;2.03;;;18.60;99.90;;;;;;5056352;28;20071;-93
2022/10/04 12:02:16;;;;;;;8.35;2.22;;;18.70;99.90;;;;;;5056888;28;20092;-92
2022/10/04 12:05:03;;;;;;;5.80;2.33;;;18.80;99.90;;;;;;5045242;28;20515;-94
2022/10/04 12:07:43;;;;;;;10.70;2.40;;;18.80;99.90;;;;;;5053561;28;20040;-92
2022/10/04 12:10:20;;;;;;;7.70;2.00;;;18.80;99.90;;;;;;5056006;28;20025;-92
2022/10/04 12:13:23;;;;;;;5.30;1.65;;;19.00;99.90;;;;;;5050861;28;20057;-93
2022/10/04 12:16:26;;;;;;;5.28;1.63;;;19.20;99.90;;;;;;5044145;28;20037;-92
2022/10/04 12:19:19;;;;;;;6.93;1.88;;;19.20;99.90;;;;;;5036564;28;20029;-92
2022/10/04 12:21:57;;;;;;;6.38;2.10;;;19.20;99.90;;;;;;5051048;28;20025;-92
2022/10/04 12:25:01;;;;;;;7.03;1.77;;;19.30;99.90;;;;;;5048879;28;20025;-92
2022/10/04 12:27:54;;;;;;;6.75;1.92;;;19.20;99.90;;;;;;5048487;28;20132;-91
2022/10/04 12:30:39;;;;;;;4.97;1.83;;;19.30;99.90;;;;;;5050107;28;20037;-92
2022/10/04 12:33:36;;;;;;;5.53;2.15;;;19.30;99.90;;;;;;5053762;28;20029;-93
2022/10/04 12:36:17;;;;;;;7.22;2.28;;;19.40;99.90;;;;;;5034933;28;20036;-94
2022/10/04 12:39:18;;;;;;;7.82;2.45;;;19.50;99.70;;;;;;5043514;28;20029;-93
2022/10/04 12:41:55;;;;;;;6.68;2.20;;;19.60;99.30;;;;;;5019476;28;20501;-89
2022/10/04 12:44:37;;;;;;;5.57;2.00;;;19.60;99.20;;;;;;5047051;28;20491;-93
2022/10/04 12:47:31;;;;;;;6.75;2.00;;;19.70;98.90;;;;;;5051364;28;20037;-93
2022/10/04 12:50:25;;;;;;;6.70;1.10;;;19.70;98.40;;;;;;5042377;28;20393;-94
2022/10/04 12:53:15;;;;;;;8.45;1.40;;;19.60;98.40;;;;;;5040198;28;20025;-95
2022/10/04 12:56:04;;;;;;;3.67;2.00;;;19.40;97.90;;;;;;5048867;28;20033;-93
2022/10/04 12:58:38;;;;;;;4.43;1.20;;;19.20;98.00;;;;;;5049202;28;20442;-93
2022/10/04 13:01:31;;;;;;;5.03;1.40;;;19.20;97.90;;;;;;5039824;28;20074;-93
2022/10/04 13:04:23;;;;;;;6.47;1.65;;;19.20;97.80;;;;;;5031778;28;20034;-95
2022/10/04 13:06:56;;;;;;;10.07;2.13;;;19.10;97.90;;;;;;5050545;28;20562;-94
2022/10/04 13:09:45;;;;;;;6.22;1.83;;;19.10;97.80;;;;;;5053097;28;20025;-93
2022/10/04 13:12:28;;;;;;;7.22;1.75;;;19.20;97.60;;;;;;5049097;28;20029;-92
2022/10/04 13:15:24;;;;;;;5.65;1.60;;;19.30;97.70;;;;;;5051394;28;20059;-92
2022/10/04 13:17:56;;;;;;;5.47;1.55;;;19.30;97.40;;;;;;5050982;28;20029;-93
2022/10/04 13:20:34;;;;;;;5.38;1.95;;;19.30;97.30;;;;;;5049840;28;20112;-92
2022/10/04 13:23:27;;;;;;;3.38;1.20;;;19.30;97.30;;;;;;5049885;28;20029;-93
2022/10/04 13:26:04;;;;;;;6.10;1.45;;;19.40;97.30;;;;;;5042146;28;20436;-91
2022/10/04 13:28:40;;;;;;;7.20;1.98;;;19.40;96.90;;;;;;5046621;28;20335;-93
2022/10/04 13:31:33;;;;;;;8.10;1.65;;;19.40;96.30;;;;;;5050656;28;20049;-93
2022/10/04 13:34:20;;;;;;;4.72;1.20;;;19.40;96.40;;;;;;5067756;28;20041;-93
2022/10/04 13:36:48;;;;;;;5.88;1.40;;;19.40;96.60;;;;;;5052059;28;20079;-93
2022/10/04 13:39:32;;;;;;;3.00;1.20;;;19.50;96.20;;;;;;5049187;28;20017;-93
2022/10/04 13:42:11;;;;;;;4.50;1.58;;;19.60;96.00;;;;;;5038417;28;20052;-93
2022/10/04 13:44:55;;;;;;;5.28;1.20;;;19.60;95.30;;;;;;5051659;28;20025;-94
2022/10/04 13:47:39;;;;;;;5.53;1.20;;;19.60;95.30;;;;;;5050431;28;20037;-93
2022/10/04 13:50:31;;;;;;;3.42;1.20;;;19.60;95.30;;;;;;5049730;28;20028;-93
2022/10/04 13:56:53;;;;;;;3.40;0.87;;;19.70;95.20;;;;;;5053344;28;20040;-93
2022/10/04 14:00:04;;;;;;;5.10;1.00;;;19.70;95.40;;;;;;5051666;28;20032;-93
2022/10/04 14:02:49;;;;;;;3.38;1.17;;;19.80;95.20;;;;;;5031413;28;20033;-93